Time;durP1;ratioP1;P1;durP2;ratioP2;P2;SDS_P1;SDS_P2;PMS_P1;PMS_P2;Temp;Humidity;BMP_temperature;BMP_pressure;BME280_temperature;BME280_humidity;BME280_pressure;Samples;Min_cycle;Max_cycle;Signal;HPM_P1;HPM_P2
2022/07/05 00:01:48;;;;;;;11.13;3.50;;;;;;;;;;4809616;29;20065;-73
2022/07/05 00:04:19;;;;;;;7.18;2.90;;;;;;;;;;4839931;29;20058;-73
2022/07/05 00:09:37;;;;;;;11.93;3.40;;;;;;;;;;4840326;29;20058;-73
2022/07/05 00:12:08;;;;;;;8.50;3.15;;;;;;;;;;4839865;29;20066;-73
2022/07/05 00:14:40;;;;;;;10.02;3.15;;;;;;;;;;4840046;29;20102;-73
2022/07/05 00:17:11;;;;;;;8.07;3.58;;;;;;;;;;4839734;29;20054;-73
2022/07/05 00:19:42;;;;;;;10.05;3.83;;;;;;;;;;4839864;29;20503;-72
2022/07/05 00:22:13;;;;;;;7.80;3.20;;;;;;;;;;4820927;29;20062;-73
2022/07/05 00:24:44;;;;;;;12.10;4.22;;;;;;;;;;4821292;29;20535;-72
2022/07/05 00:27:15;;;;;;;13.48;3.67;;;;;;;;;;4790816;29;20058;-73
2022/07/05 00:29:45;;;;;;;13.48;4.40;;;;;;;;;;4832940;29;20066;-72
2022/07/05 00:32:16;;;;;;;11.77;4.00;;;;;;;;;;4863171;29;20061;-72
2022/07/05 00:34:46;;;;;;;12.05;3.75;;;;;;;;;;4861304;29;20482;-72
2022/07/05 00:37:17;;;;;;;10.23;4.10;;;;;;;;;;4820736;29;20061;-72
2022/07/05 00:39:48;;;;;;;15.05;4.07;;;;;;;;;;4805975;29;20063;-72
2022/07/05 00:42:18;;;;;;;9.10;3.60;;;;;;;;;;4835903;29;20054;-72
2022/07/05 00:44:49;;;;;;;9.00;3.92;;;;;;;;;;4821080;29;20073;-72
2022/07/05 00:47:19;;;;;;;8.73;3.67;;;;;;;;;;4806293;29;20058;-72
2022/07/05 00:49:49;;;;;;;9.57;3.85;;;;;;;;;;4820958;29;20065;-72
2022/07/05 00:52:20;;;;;;;9.45;4.13;;;;;;;;;;4838772;29;20057;-72
2022/07/05 00:54:51;;;;;;;9.00;3.78;;;;;;;;;;4838598;29;20064;-72
2022/07/05 00:57:22;;;;;;;7.93;3.45;;;;;;;;;;4838963;29;20495;-72
2022/07/05 00:59:53;;;;;;;9.40;3.50;;;;;;;;;;4839077;29;20876;-71
2022/07/05 01:02:23;;;;;;;12.93;3.45;;;;;;;;;;4807982;29;20058;-72
2022/07/05 01:04:54;;;;;;;9.63;3.55;;;;;;;;;;4839035;29;20058;-72
2022/07/05 01:07:25;;;;;;;8.55;3.53;;;;;;;;;;4856620;29;20064;-72
2022/07/05 01:09:57;;;;;;;9.25;3.80;;;;;;;;;;4838704;29;20064;-73
2022/07/05 01:12:27;;;;;;;10.13;3.75;;;;;;;;;;4838581;29;20062;-73
2022/07/05 01:14:58;;;;;;;14.43;3.78;;;;;;;;;;4848469;29;20433;-72
2022/07/05 01:17:29;;;;;;;10.25;3.60;;;;;;;;;;4841507;29;20061;-72
2022/07/05 01:19:59;;;;;;;11.43;3.92;;;;;;;;;;4856886;29;20058;-72
2022/07/05 01:22:53;;;;;;;10.70;4.00;;;;;;;;;;4855286;29;20057;-72
2022/07/05 01:25:26;;;;;;;8.52;3.50;;;;;;;;;;4820333;29;20085;-72
2022/07/05 01:27:58;;;;;;;9.57;3.67;;;;;;;;;;4775190;29;20067;-72
2022/07/05 01:30:30;;;;;;;11.57;3.80;;;;;;;;;;4820274;29;20073;-72
2022/07/05 01:33:00;;;;;;;9.05;3.85;;;;;;;;;;4820295;29;20528;-73
2022/07/05 01:35:30;;;;;;;12.52;3.65;;;;;;;;;;4820272;29;20065;-72
2022/07/05 01:38:02;;;;;;;9.18;3.72;;;;;;;;;;4820171;29;20073;-72
2022/07/05 01:40:32;;;;;;;8.20;3.60;;;;;;;;;;4775430;29;20115;-72
2022/07/05 01:43:04;;;;;;;8.73;3.88;;;;;;;;;;4820022;29;20066;-72
2022/07/05 01:45:44;;;;;;;7.65;3.63;;;;;;;;;;4820122;29;20054;-72
2022/07/05 01:48:18;;;;;;;9.43;3.45;;;;;;;;;;4819610;29;20061;-73
2022/07/05 01:51:13;;;;;;;9.77;3.38;;;;;;;;;;4820193;29;20070;-71
2022/07/05 01:53:44;;;;;;;11.15;4.03;;;;;;;;;;4820241;29;20058;-70
2022/07/05 01:56:15;;;;;;;9.73;3.72;;;;;;;;;;4801352;29;20054;-71
2022/07/05 01:58:46;;;;;;;13.93;3.53;;;;;;;;;;4783626;29;20059;-71
2022/07/05 02:01:39;;;;;;;13.18;3.75;;;;;;;;;;4783718;29;20066;-71
2022/07/05 02:04:10;;;;;;;10.93;4.22;;;;;;;;;;4783731;29;20063;-71
2022/07/05 02:06:41;;;;;;;;;;;;;;;;;;4737020;30;20473;-72
2022/07/05 02:09:12;;;;;;;10.07;3.65;;;;;;;;;;4747676;30;19933;-70
2022/07/05 02:11:42;;;;;;;6.90;3.40;;;;;;;;;;4747815;30;20577;-71
2022/07/05 02:14:12;;;;;;;12.68;3.95;;;;;;;;;;4712796;30;20169;-71
2022/07/05 02:16:43;;;;;;;13.18;3.47;;;;;;;;;;4712870;30;20069;-71
2022/07/05 02:19:15;;;;;;;15.90;3.60;;;;;;;;;;4712643;30;20447;-71
2022/07/05 02:21:47;;;;;;;14.70;4.13;;;;;;;;;;4683993;30;20064;-71
2022/07/05 02:24:23;;;;;;;7.35;3.35;;;;;;;;;;4702112;30;20423;-70
2022/07/05 02:27:13;;;;;;;11.35;3.60;;;;;;;;;;4765736;30;20059;-71
2022/07/05 02:29:45;;;;;;;9.13;4.10;;;;;;;;;;4750954;30;20056;-70
2022/07/05 02:32:17;;;;;;;;;;;;;;;;;;4751612;30;20052;-71
2022/07/05 02:34:47;;;;;;;9.60;3.42;;;;;;;;;;4780692;30;19925;-71
2022/07/05 02:37:18;;;;;;;9.98;3.60;;;;;;;;;;4768968;30;20056;-71
2022/07/05 02:39:48;;;;;;;10.85;3.45;;;;;;;;;;4786906;30;20070;-71
2022/07/05 02:42:19;;;;;;;12.00;4.07;;;;;;;;;;4786491;30;20055;-71
2022/07/05 02:44:50;;;;;;;11.18;3.67;;;;;;;;;;4799417;29;20059;-71
2022/07/05 02:47:21;;;;;;;9.10;3.53;;;;;;;;;;4772543;29;20073;-71
2022/07/05 02:49:52;;;;;;;10.85;3.72;;;;;;;;;;4792474;29;20126;-71
2022/07/05 02:52:23;;;;;;;7.53;3.60;;;;;;;;;;4848480;29;20053;-71
2022/07/05 02:54:53;;;;;;;7.47;3.45;;;;;;;;;;4840757;29;20057;-71
2022/07/05 02:57:24;;;;;;;11.35;3.88;;;;;;;;;;4828228;29;20059;-71
2022/07/05 02:59:55;;;;;;;11.43;3.55;;;;;;;;;;4792041;29;20069;-71
2022/07/05 03:02:36;;;;;;;10.15;3.70;;;;;;;;;;4795540;29;20070;-71
2022/07/05 03:05:07;;;;;;;8.40;3.50;;;;;;;;;;4786304;30;20067;-70
2022/07/05 03:07:41;;;;;;;10.00;3.65;;;;;;;;;;4771568;30;20056;-70
2022/07/05 03:10:11;;;;;;;7.35;3.50;;;;;;;;;;4750958;30;20060;-70
2022/07/05 03:12:42;;;;;;;7.30;3.33;;;;;;;;;;4757790;30;20064;-71
2022/07/05 03:15:15;;;;;;;15.52;4.05;;;;;;;;;;4765119;30;20059;-70
2022/07/05 03:17:45;;;;;;;8.55;4.25;;;;;;;;;;4782618;30;20055;-71
2022/07/05 03:20:18;;;;;;;8.90;3.15;;;;;;;;;;4774855;30;20096;-71
2022/07/05 03:22:49;;;;;;;8.13;3.67;;;;;;;;;;4750184;30;20063;-71
2022/07/05 03:25:24;;;;;;;10.05;3.90;;;;;;;;;;4750292;30;20568;-71
2022/07/05 03:27:55;;;;;;;10.45;3.50;;;;;;;;;;4736338;30;20063;-71
2022/07/05 03:30:25;;;;;;;11.60;3.80;;;;;;;;;;4739439;30;20060;-70
2022/07/05 03:32:57;;;;;;;9.70;3.10;;;;;;;;;;4738535;30;20061;-70
2022/07/05 03:35:30;;;;;;;12.07;3.63;;;;;;;;;;4735809;30;20059;-70
2022/07/05 03:38:00;;;;;;;9.38;3.67;;;;;;;;;;4749386;30;20056;-70
2022/07/05 03:40:31;;;;;;;10.77;3.50;;;;;;;;;;4760728;30;20060;-71
2022/07/05 03:43:02;;;;;;;7.68;3.60;;;;;;;;;;4770724;29;20051;-70
2022/07/05 03:45:35;;;;;;;12.07;3.80;;;;;;;;;;4784638;29;20182;-70
2022/07/05 03:48:07;;;;;;;10.05;3.58;;;;;;;;;;4773785;29;20463;-71
2022/07/05 03:50:58;;;;;;;7.75;3.67;;;;;;;;;;4789950;29;20394;-71
2022/07/05 03:53:29;;;;;;;9.88;3.72;;;;;;;;;;4741167;29;20062;-71
2022/07/05 03:56:02;;;;;;;9.70;3.55;;;;;;;;;;4776516;29;20062;-70
2022/07/05 03:58:32;;;;;;;11.57;3.63;;;;;;;;;;4747481;30;20409;-70
2022/07/05 04:01:03;;;;;;;9.18;3.50;;;;;;;;;;4816152;29;20051;-71
2022/07/05 04:03:35;;;;;;;10.52;3.70;;;;;;;;;;4821099;29;20055;-71
2022/07/05 04:06:12;;;;;;;8.13;3.95;;;;;;;;;;4852037;29;20053;-70
2022/07/05 04:08:43;;;;;;;6.78;3.80;;;;;;;;;;4817819;29;20538;-70
2022/07/05 04:11:15;;;;;;;8.73;4.03;;;;;;;;;;4803303;29;20054;-70
2022/07/05 04:13:49;;;;;;;8.57;4.00;;;;;;;;;;4825300;29;20058;-71
2022/07/05 04:16:20;;;;;;;8.98;3.53;;;;;;;;;;4793540;29;20063;-70
2022/07/05 04:18:50;;;;;;;7.72;3.42;;;;;;;;;;4785391;30;20067;-71
2022/07/05 04:21:21;;;;;;;10.65;3.80;;;;;;;;;;4802661;29;20059;-71
2022/07/05 04:23:51;;;;;;;13.32;3.60;;;;;;;;;;4789721;29;20063;-71
2022/07/05 04:26:22;;;;;;;10.10;3.92;;;;;;;;;;4771865;30;20058;-71
2022/07/05 04:28:52;;;;;;;11.52;3.63;;;;;;;;;;4777667;30;20058;-71
2022/07/05 04:31:30;;;;;;;8.77;3.80;;;;;;;;;;4784609;30;20063;-71
2022/07/05 04:34:00;;;;;;;9.63;3.83;;;;;;;;;;4773610;30;20071;-71
2022/07/05 04:36:34;;;;;;;11.98;3.90;;;;;;;;;;4778948;30;20055;-71
2022/07/05 04:39:05;;;;;;;13.23;4.07;;;;;;;;;;4803074;29;20435;-71
2022/07/05 04:41:36;;;;;;;8.60;4.22;;;;;;;;;;4817297;29;20106;-71
2022/07/05 04:44:09;;;;;;;8.57;3.78;;;;;;;;;;4808270;29;20062;-71
2022/07/05 04:46:40;;;;;;;9.82;4.20;;;;;;;;;;4809877;29;20062;-71
2022/07/05 04:49:10;;;;;;;8.80;4.20;;;;;;;;;;4802593;29;20055;-70
2022/07/05 04:51:41;;;;;;;10.05;3.80;;;;;;;;;;4808741;29;20055;-70
2022/07/05 04:54:15;;;;;;;9.90;4.40;;;;;;;;;;4802741;29;20411;-70
2022/07/05 04:56:46;;;;;;;10.32;4.32;;;;;;;;;;4802662;29;20063;-70
2022/07/05 04:59:16;;;;;;;12.65;4.53;;;;;;;;;;4748281;30;20421;-70
2022/07/05 05:01:52;;;;;;;8.63;4.13;;;;;;;;;;4749001;30;20064;-70
2022/07/05 05:04:23;;;;;;;11.77;4.22;;;;;;;;;;4749039;30;20402;-71
2022/07/05 05:06:53;;;;;;;10.80;4.15;;;;;;;;;;4748766;30;20638;-71
2022/07/05 05:09:26;;;;;;;12.85;5.05;;;;;;;;;;4784074;30;20063;-70
2022/07/05 05:11:56;;;;;;;9.30;3.85;;;;;;;;;;4740163;30;20520;-71
2022/07/05 05:14:26;;;;;;;8.05;3.50;;;;;;;;;;4784517;30;20070;-71
2022/07/05 05:16:57;;;;;;;11.68;3.83;;;;;;;;;;4795212;29;20070;-71
2022/07/05 05:19:27;;;;;;;11.27;3.63;;;;;;;;;;4797915;29;20492;-70
2022/07/05 05:21:57;;;;;;;11.00;4.38;;;;;;;;;;4822800;29;20066;-70
2022/07/05 05:24:27;;;;;;;14.75;3.92;;;;;;;;;;4838889;29;20054;-70
2022/07/05 05:26:58;;;;;;;11.10;4.28;;;;;;;;;;4838473;29;20073;-70
2022/07/05 05:29:28;;;;;;;8.57;3.72;;;;;;;;;;4805434;29;20527;-71
2022/07/05 05:31:59;;;;;;;9.32;4.10;;;;;;;;;;4775317;29;20062;-71
2022/07/05 05:34:30;;;;;;;9.27;3.92;;;;;;;;;;4820365;29;20062;-70
2022/07/05 05:37:01;;;;;;;12.85;4.55;;;;;;;;;;4820347;29;20058;-70
2022/07/05 05:39:31;;;;;;;14.38;4.55;;;;;;;;;;4775274;29;20055;-71
2022/07/05 05:42:01;;;;;;;13.05;5.00;;;;;;;;;;4820172;29;20062;-71
2022/07/05 05:44:31;;;;;;;12.75;4.53;;;;;;;;;;4801688;29;20050;-71
2022/07/05 05:47:01;;;;;;;9.30;3.85;;;;;;;;;;4819839;29;20064;-71
2022/07/05 05:49:31;;;;;;;10.40;4.80;;;;;;;;;;4838181;29;20053;-71
2022/07/05 05:52:02;;;;;;;13.35;4.35;;;;;;;;;;4807901;29;20532;-71
2022/07/05 05:54:33;;;;;;;11.52;4.88;;;;;;;;;;4838394;29;20515;-71
2022/07/05 05:57:03;;;;;;;13.27;4.95;;;;;;;;;;4807842;29;20466;-71
2022/07/05 05:59:33;;;;;;;12.23;5.57;;;;;;;;;;4807971;29;20058;-71
2022/07/05 06:02:04;;;;;;;11.65;4.35;;;;;;;;;;4819652;29;20073;-70
2022/07/05 06:04:35;;;;;;;16.00;4.70;;;;;;;;;;4820445;29;20066;-71
2022/07/05 06:07:05;;;;;;;12.90;4.68;;;;;;;;;;4838206;29;20098;-71
2022/07/05 06:09:35;;;;;;;14.90;5.35;;;;;;;;;;4852868;29;20672;-71
2022/07/05 06:12:06;;;;;;;16.17;5.45;;;;;;;;;;4838367;29;20061;-70
2022/07/05 06:14:36;;;;;;;13.75;4.43;;;;;;;;;;4838223;29;20084;-71
2022/07/05 06:17:06;;;;;;;14.65;5.35;;;;;;;;;;4819722;29;20053;-71
2022/07/05 06:19:37;;;;;;;11.68;5.05;;;;;;;;;;4810817;29;20062;-71
2022/07/05 06:22:07;;;;;;;12.48;5.40;;;;;;;;;;4793114;29;20063;-69
2022/07/05 06:24:38;;;;;;;14.85;5.13;;;;;;;;;;4768635;30;20062;-70
2022/07/05 06:27:08;;;;;;;14.10;5.28;;;;;;;;;;4765430;30;20140;-69
2022/07/05 06:29:38;;;;;;;15.70;4.90;;;;;;;;;;4780572;30;20531;-70
2022/07/05 06:32:08;;;;;;;10.00;4.88;;;;;;;;;;4765540;30;20063;-70
2022/07/05 06:34:39;;;;;;;10.98;4.93;;;;;;;;;;4736097;30;20460;-69
2022/07/05 06:37:09;;;;;;;12.60;5.10;;;;;;;;;;4765857;30;20060;-69
2022/07/05 06:39:39;;;;;;;10.63;5.00;;;;;;;;;;4783241;29;20059;-69
2022/07/05 06:42:10;;;;;;;11.15;5.20;;;;;;;;;;4783630;29;20070;-70
2022/07/05 06:44:41;;;;;;;18.33;5.55;;;;;;;;;;4783195;29;20055;-70
2022/07/05 06:47:11;;;;;;;11.13;5.72;;;;;;;;;;4783610;29;20059;-69
2022/07/05 06:49:41;;;;;;;12.93;5.22;;;;;;;;;;4753719;30;20063;-69
2022/07/05 06:52:13;;;;;;;16.30;5.50;;;;;;;;;;4768828;30;20071;-70
2022/07/05 06:54:43;;;;;;;10.70;5.35;;;;;;;;;;4800889;29;20069;-69
2022/07/05 06:57:22;;;;;;;10.98;5.28;;;;;;;;;;4819243;29;20061;-70
2022/07/05 07:00:01;;;;;;;13.48;5.30;;;;;;;;;;4819899;29;20543;-69
2022/07/05 07:02:32;;;;;;;10.60;4.88;;;;;;;;;;4815801;29;20054;-69
2022/07/05 07:05:03;;;;;;;11.63;5.15;;;;;;;;;;4778759;29;20055;-70
2022/07/05 07:10:27;;;;;;;12.05;5.45;;;;;;;;;;4744026;30;20650;-69
2022/07/05 07:12:59;;;;;;;10.48;4.60;;;;;;;;;;4779828;29;20439;-70
2022/07/05 07:15:30;;;;;;;10.32;5.07;;;;;;;;;;4782987;30;20060;-69
2022/07/05 07:18:00;;;;;;;13.00;5.18;;;;;;;;;;4770896;29;20066;-69
2022/07/05 07:20:31;;;;;;;10.75;5.35;;;;;;;;;;4804401;29;20063;-69
2022/07/05 07:23:01;;;;;;;13.70;5.38;;;;;;;;;;4774657;29;20069;-70
2022/07/05 07:25:32;;;;;;;11.75;5.20;;;;;;;;;;4804540;29;20476;-70
2022/07/05 07:28:02;;;;;;;9.48;4.32;;;;;;;;;;4834439;29;20074;-70
2022/07/05 07:30:33;;;;;;;10.73;4.90;;;;;;;;;;4774554;29;20063;-70
2022/07/05 07:41:33;;;;;;;11.38;4.55;;;;;;;;;;4842366;29;20045;-70
2022/07/05 07:44:04;;;;;;;14.02;5.05;;;;;;;;;;4879786;29;20057;-69
2022/07/05 07:46:35;;;;;;;9.55;4.55;;;;;;;;;;4879619;29;20041;-69
2022/07/05 07:49:06;;;;;;;10.57;4.03;;;;;;;;;;4877396;29;20064;-69
2022/07/05 07:51:37;;;;;;;10.05;4.18;;;;;;;;;;4862073;29;20053;-70
2022/07/05 07:54:08;;;;;;;8.25;4.05;;;;;;;;;;4877284;29;20057;-70
2022/07/05 07:56:38;;;;;;;9.35;3.70;;;;;;;;;;4877281;29;20053;-71
2022/07/05 07:59:09;;;;;;;10.07;3.40;;;;;;;;;;4877358;29;20053;-70
2022/07/05 08:01:40;;;;;;;8.68;3.67;;;;;;;;;;4877138;29;20060;-71
2022/07/05 08:04:15;;;;;;;12.52;4.20;;;;;;;;;;4877145;29;20417;-70
2022/07/05 08:06:45;;;;;;;8.20;3.83;;;;;;;;;;4831048;29;20645;-70
2022/07/05 08:09:16;;;;;;;10.32;4.00;;;;;;;;;;4877186;29;20141;-70
2022/07/05 08:11:47;;;;;;;8.10;3.95;;;;;;;;;;4836463;29;20058;-70
2022/07/05 08:14:17;;;;;;;11.07;3.88;;;;;;;;;;4821587;29;20069;-71
2022/07/05 08:16:49;;;;;;;8.20;3.67;;;;;;;;;;4821424;29;20050;-70
2022/07/05 08:22:09;;;;;;;8.95;3.40;;;;;;;;;;4821655;29;20066;-71
2022/07/05 08:24:40;;;;;;;7.28;3.42;;;;;;;;;;4821457;29;20629;-71
2022/07/05 08:27:12;;;;;;;9.50;3.85;;;;;;;;;;4791216;29;20077;-71
2022/07/05 08:29:43;;;;;;;7.65;3.53;;;;;;;;;;4791297;29;20066;-71
2022/07/05 08:32:14;;;;;;;7.80;3.40;;;;;;;;;;4821445;29;20054;-71
2022/07/05 08:34:44;;;;;;;8.80;3.78;;;;;;;;;;4821528;29;20062;-71
2022/07/05 08:37:15;;;;;;;11.70;4.45;;;;;;;;;;4857645;29;20540;-71
2022/07/05 08:39:46;;;;;;;10.80;4.28;;;;;;;;;;4858246;29;20105;-71
2022/07/05 08:42:16;;;;;;;8.98;3.90;;;;;;;;;;4808694;29;20054;-71
2022/07/05 08:44:51;;;;;;;8.38;3.65;;;;;;;;;;4824653;29;20058;-71
2022/07/05 08:47:22;;;;;;;8.55;3.95;;;;;;;;;;4839138;29;20076;-71
2022/07/05 08:49:54;;;;;;;8.45;3.60;;;;;;;;;;4839509;29;20057;-71
2022/07/05 08:52:26;;;;;;;11.15;3.95;;;;;;;;;;4839396;29;20058;-71
2022/07/05 08:54:58;;;;;;;9.25;3.53;;;;;;;;;;4824386;29;20058;-71
2022/07/05 08:57:28;;;;;;;8.20;3.33;;;;;;;;;;4805393;29;20058;-71
2022/07/05 08:59:59;;;;;;;7.22;3.72;;;;;;;;;;4821234;29;20059;-71
2022/07/05 09:02:29;;;;;;;10.23;3.72;;;;;;;;;;4820911;29;20272;-71
2022/07/05 09:05:00;;;;;;;9.32;3.80;;;;;;;;;;4820996;29;20058;-70
2022/07/05 09:07:32;;;;;;;8.55;3.88;;;;;;;;;;4820856;29;20085;-70
2022/07/05 09:10:04;;;;;;;8.02;3.47;;;;;;;;;;4820844;29;20058;-70
2022/07/05 09:12:34;;;;;;;6.30;3.10;;;;;;;;;;4835040;29;20058;-70
2022/07/05 09:15:05;;;;;;;9.32;4.03;;;;;;;;;;4842684;29;20419;-71
2022/07/05 09:17:43;;;;;;;10.00;3.30;;;;;;;;;;4857360;29;20050;-70
2022/07/05 09:20:16;;;;;;;12.02;3.55;;;;;;;;;;4857249;29;20057;-71
2022/07/05 09:22:48;;;;;;;5.93;3.08;;;;;;;;;;4856305;29;20054;-71
2022/07/05 09:25:29;;;;;;;9.35;3.63;;;;;;;;;;4856912;29;20054;-71
2022/07/05 09:28:05;;;;;;;9.50;3.90;;;;;;;;;;4857093;29;20057;-71
2022/07/05 09:30:41;;;;;;;8.35;3.35;;;;;;;;;;4857083;29;20502;-70
2022/07/05 09:33:16;;;;;;;7.85;3.63;;;;;;;;;;4838508;29;20442;-70
2022/07/05 09:35:57;;;;;;;9.07;3.50;;;;;;;;;;4855918;29;20064;-70
2022/07/05 09:38:30;;;;;;;7.65;3.55;;;;;;;;;;4875532;29;20057;-70
2022/07/05 09:41:01;;;;;;;7.57;3.60;;;;;;;;;;4856756;29;20060;-70
2022/07/05 09:43:32;;;;;;;9.45;3.85;;;;;;;;;;4841924;29;20064;-70
2022/07/05 09:46:04;;;;;;;8.02;3.38;;;;;;;;;;4825883;29;20446;-70
2022/07/05 09:48:35;;;;;;;8.35;3.97;;;;;;;;;;4857235;29;20064;-70
2022/07/05 09:51:12;;;;;;;7.22;3.60;;;;;;;;;;4856713;29;20064;-70
2022/07/05 09:54:03;;;;;;;9.20;3.40;;;;;;;;;;4856830;29;20057;-70
2022/07/05 09:56:48;;;;;;;8.90;3.78;;;;;;;;;;4856659;29;20052;-70
2022/07/05 09:59:21;;;;;;;8.38;3.92;;;;;;;;;;4822682;29;20049;-70
2022/07/05 10:01:52;;;;;;;9.27;3.25;;;;;;;;;;4819965;29;20447;-70
2022/07/05 10:04:23;;;;;;;11.45;3.42;;;;;;;;;;4819689;29;20058;-70
2022/07/05 10:06:53;;;;;;;9.57;3.63;;;;;;;;;;4804870;29;20055;-70
2022/07/05 10:09:23;;;;;;;10.63;4.15;;;;;;;;;;4834450;29;20058;-71
2022/07/05 10:11:54;;;;;;;12.48;4.03;;;;;;;;;;4806599;29;20058;-70
2022/07/05 10:14:26;;;;;;;8.40;4.10;;;;;;;;;;4838015;29;20058;-70
2022/07/05 10:17:03;;;;;;;8.43;3.50;;;;;;;;;;4838090;29;20073;-70
2022/07/05 10:19:39;;;;;;;8.30;3.75;;;;;;;;;;4837933;29;20062;-70
2022/07/05 10:22:11;;;;;;;9.15;4.00;;;;;;;;;;4838233;29;20066;-70
2022/07/05 10:24:47;;;;;;;9.20;3.83;;;;;;;;;;4837904;29;20050;-70
2022/07/05 10:27:19;;;;;;;7.93;4.47;;;;;;;;;;4838059;29;20057;-71
2022/07/05 10:29:51;;;;;;;8.88;4.07;;;;;;;;;;4823135;29;20062;-70
2022/07/05 10:32:24;;;;;;;8.43;4.05;;;;;;;;;;4838279;29;20069;-70
2022/07/05 10:34:56;;;;;;;7.80;3.80;;;;;;;;;;4823083;29;20106;-70
2022/07/05 10:37:28;;;;;;;9.70;4.15;;;;;;;;;;4850755;29;20061;-70
2022/07/05 10:40:02;;;;;;;11.88;4.22;;;;;;;;;;4843054;29;20062;-69
2022/07/05 10:42:55;;;;;;;11.85;3.97;;;;;;;;;;4837647;29;20054;-70
2022/07/05 10:45:29;;;;;;;13.05;4.10;;;;;;;;;;4837743;29;20069;-70
2022/07/05 10:48:13;;;;;;;10.02;3.80;;;;;;;;;;4870793;29;20166;-71
2022/07/05 10:50:58;;;;;;;9.52;4.47;;;;;;;;;;4841015;29;20062;-70
2022/07/05 10:53:38;;;;;;;13.93;4.32;;;;;;;;;;4822634;29;20050;-70
2022/07/05 10:56:09;;;;;;;10.23;4.70;;;;;;;;;;4823025;29;20093;-70
2022/07/05 10:58:45;;;;;;;11.43;4.32;;;;;;;;;;4822602;29;20069;-71
2022/07/05 11:01:19;;;;;;;9.57;4.22;;;;;;;;;;4792891;29;20134;-70
2022/07/05 11:04:02;;;;;;;28.70;10.18;;;;;;;;;;4822698;29;20169;-70
2022/07/05 11:06:39;;;;;;;18.70;7.60;;;;;;;;;;4822438;29;20055;-71
2022/07/05 11:09:11;;;;;;;21.35;9.85;;;;;;;;;;4777704;29;20169;-71
2022/07/05 11:11:47;;;;;;;36.55;14.52;;;;;;;;;;4822709;29;20054;-71
2022/07/05 11:14:39;;;;;;;34.05;11.80;;;;;;;;;;4822906;29;20051;-70
2022/07/05 11:17:11;;;;;;;21.70;9.70;;;;;;;;;;4834377;29;20393;-71
2022/07/05 11:20:03;;;;;;;15.18;7.22;;;;;;;;;;4822245;29;20066;-71
2022/07/05 11:22:35;;;;;;;14.77;5.75;;;;;;;;;;4807701;29;20058;-71
2022/07/05 11:25:08;;;;;;;11.38;4.90;;;;;;;;;;4822286;29;20054;-70
2022/07/05 11:28:07;;;;;;;16.17;4.88;;;;;;;;;;4814995;29;20068;-71
2022/07/05 11:30:59;;;;;;;15.75;6.80;;;;;;;;;;4851806;29;20057;-71
2022/07/05 11:33:39;;;;;;;15.27;6.00;;;;;;;;;;4833683;29;20409;-71
2022/07/05 11:36:26;;;;;;;16.60;6.13;;;;;;;;;;4879802;29;20097;-72
2022/07/05 11:39:08;;;;;;;15.20;6.45;;;;;;;;;;4879786;29;20049;-72
2022/07/05 11:41:48;;;;;;;28.08;11.95;;;;;;;;;;4879834;29;20521;-72
2022/07/05 11:44:19;;;;;;;52.65;26.38;;;;;;;;;;4862091;29;20064;-72
2022/07/05 11:47:13;;;;;;;31.77;13.15;;;;;;;;;;4879473;29;20052;-71
2022/07/05 11:49:57;;;;;;;52.78;26.88;;;;;;;;;;4877102;29;20497;-71
2022/07/05 11:52:32;;;;;;;48.03;26.90;;;;;;;;;;4877143;29;20057;-72
2022/07/05 11:55:06;;;;;;;57.20;33.50;;;;;;;;;;4877214;29;20061;-71
2022/07/05 11:57:37;;;;;;;48.75;30.17;;;;;;;;;;4877302;29;20053;-72
2022/07/05 12:00:08;;;;;;;52.60;29.85;;;;;;;;;;4876900;29;20068;-72
2022/07/05 12:02:44;;;;;;;48.55;31.95;;;;;;;;;;4877522;29;20049;-72
2022/07/05 12:05:16;;;;;;;56.03;33.17;;;;;;;;;;4876802;29;20061;-72
2022/07/05 12:07:52;;;;;;;49.47;32.15;;;;;;;;;;4876741;29;20064;-72
2022/07/05 12:13:31;;;;;;;48.75;29.85;;;;;;;;;;4877220;29;20049;-72
2022/07/05 12:16:01;;;;;;;51.28;33.45;;;;;;;;;;4876702;29;20065;-71
2022/07/05 12:18:32;;;;;;;79.45;48.13;;;;;;;;;;4876820;29;20127;-72
2022/07/05 12:21:02;;;;;;;105.50;70.03;;;;;;;;;;4877981;29;20057;-71
2022/07/05 12:23:32;;;;;;;100.32;67.82;;;;;;;;;;4876555;29;20061;-72
2022/07/05 12:26:03;;;;;;;76.38;51.97;;;;;;;;;;4857508;29;20404;-72
2022/07/05 12:28:33;;;;;;;72.85;47.58;;;;;;;;;;4858236;29;20126;-72
2022/07/05 12:31:24;;;;;;;74.43;49.00;;;;;;;;;;4857924;29;20486;-72
2022/07/05 12:34:18;;;;;;;74.85;48.80;;;;;;;;;;4858470;29;20064;-71
2022/07/05 12:36:48;;;;;;;62.15;39.53;;;;;;;;;;4857672;29;20056;-71
2022/07/05 12:39:18;;;;;;;69.50;41.53;;;;;;;;;;4857815;29;20061;-72
2022/07/05 12:41:49;;;;;;;61.25;40.58;;;;;;;;;;4858064;29;20070;-72
2022/07/05 12:44:20;;;;;;;69.10;42.55;;;;;;;;;;4857732;29;20064;-72
2022/07/05 12:46:52;;;;;;;66.82;39.70;;;;;;;;;;4857875;29;20061;-72
2022/07/05 12:49:23;;;;;;;67.38;40.47;;;;;;;;;;4857328;29;20406;-71
2022/07/05 12:51:53;;;;;;;76.22;36.35;;;;;;;;;;4857652;29;20057;-72
2022/07/05 13:00:08;;;;;;;51.00;25.08;;;;;;;;;;4858024;29;20088;-72
2022/07/05 13:02:45;;;;;;;70.45;36.15;;;;;;;;;;4876205;29;20053;-72
2022/07/05 13:05:24;;;;;;;74.88;32.67;;;;;;;;;;4861013;29;20053;-72
2022/07/05 13:07:57;;;;;;;70.75;33.58;;;;;;;;;;4829602;29;20068;-71
2022/07/05 13:10:31;;;;;;;51.75;25.40;;;;;;;;;;4876276;29;20097;-72
2022/07/05 13:13:08;;;;;;;75.53;35.92;;;;;;;;;;4875481;29;20422;-71
2022/07/05 13:15:38;;;;;;;73.88;34.67;;;;;;;;;;4857522;29;20066;-72
2022/07/05 13:18:09;;;;;;;49.83;21.65;;;;;;;;;;4838587;29;20061;-71
2022/07/05 13:20:40;;;;;;;43.60;21.23;;;;;;;;;;4838717;29;20058;-71
2022/07/05 13:23:10;;;;;;;72.55;32.53;;;;;;;;;;4838617;29;20073;-72
2022/07/05 13:25:40;;;;;;;95.15;45.97;;;;;;;;;;4838702;29;20058;-71
2022/07/05 13:28:10;;;;;;;44.58;19.95;;;;;;;;;;4856618;29;20105;-71
2022/07/05 13:30:41;;;;;;;34.03;14.10;;;;;;;;;;4856529;29;20049;-71
2022/07/05 13:33:11;;;;;;;36.55;16.85;;;;;;;;;;4856936;29;20426;-72
2022/07/05 13:35:41;;;;;;;49.55;24.67;;;;;;;;;;4857112;29;20057;-71
2022/07/05 13:38:12;;;;;;;53.92;25.85;;;;;;;;;;4826249;29;20084;-72
2022/07/05 13:40:42;;;;;;;204.32;99.95;;;;;;;;;;4856772;29;20069;-72
2022/07/05 13:43:12;;;;;;;26.50;16.20;;;;;;;;;;4856887;29;20069;-72
2022/07/05 13:45:43;;;;;;;38.80;19.70;;;;;;;;;;4856890;29;20061;-72
2022/07/05 13:48:13;;;;;;;28.98;20.02;;;;;;;;;;4856825;29;20196;-72
2022/07/05 13:50:43;;;;;;;23.05;10.60;;;;;;;;;;4857018;29;20061;-71
2022/07/05 13:53:13;;;;;;;16.00;9.50;;;;;;;;;;4856865;29;20062;-71
2022/07/05 13:55:44;;;;;;;18.40;8.55;;;;;;;;;;4866226;29;20057;-71
2022/07/05 13:58:14;;;;;;;14.18;8.95;;;;;;;;;;4875138;29;20166;-72
2022/07/05 14:00:44;;;;;;;16.90;7.47;;;;;;;;;;4844071;29;20057;-71
2022/07/05 14:03:15;;;;;;;6.88;3.20;;;;;;;;;;4856275;29;20057;-72
2022/07/05 14:05:46;;;;;;;11.60;4.25;;;;;;;;;;4826197;29;20058;-72
2022/07/05 14:08:22;;;;;;;8.90;3.67;;;;;;;;;;4847436;29;20053;-72
2022/07/05 14:10:55;;;;;;;5.80;2.10;;;;;;;;;;4838449;29;20061;-71
2022/07/05 14:13:27;;;;;;;5.18;1.40;;;;;;;;;;4823651;29;20092;-71
2022/07/05 14:15:58;;;;;;;4.50;1.45;;;;;;;;;;4822926;29;20529;-71
2022/07/05 14:18:28;;;;;;;6.70;1.50;;;;;;;;;;4848971;29;20060;-72
2022/07/05 14:20:58;;;;;;;5.63;1.80;;;;;;;;;;4856971;29;20068;-71
2022/07/05 14:23:29;;;;;;;4.40;1.20;;;;;;;;;;4858846;29;20064;-71
2022/07/05 14:26:01;;;;;;;6.13;1.27;;;;;;;;;;4860285;29;20049;-70
2022/07/05 14:28:31;;;;;;;;;;;;;;;;;;4860807;29;20454;-70
2022/07/05 14:31:01;;;;;;;3.88;1.38;;;;;;;;;;4860333;29;19961;-71
2022/07/05 14:33:31;;;;;;;5.50;1.55;;;;;;;;;;4860295;29;20517;-71
2022/07/05 14:36:02;;;;;;;3.08;1.30;;;;;;;;;;4860133;29;20061;-72
2022/07/05 14:38:32;;;;;;;3.03;1.20;;;;;;;;;;4830185;29;20061;-71
2022/07/05 14:41:02;;;;;;;5.57;1.33;;;;;;;;;;4870157;29;20072;-72
2022/07/05 14:43:33;;;;;;;5.75;1.55;;;;;;;;;;4848720;29;20414;-72
2022/07/05 14:46:04;;;;;;;7.30;1.40;;;;;;;;;;4868225;29;20057;-72
2022/07/05 14:48:35;;;;;;;7.07;1.30;;;;;;;;;;4859961;29;20057;-71
2022/07/05 14:51:04;;;;;;;6.13;1.67;;;;;;;;;;4790125;29;20564;-71
2022/07/05 14:53:35;;;;;;;3.33;1.30;;;;;;;;;;4869979;29;20446;-71
2022/07/05 14:56:05;;;;;;;3.58;1.75;;;;;;;;;;4864959;29;20511;-72
2022/07/05 14:58:35;;;;;;;4.35;1.35;;;;;;;;;;4876448;29;20049;-72
2022/07/05 15:01:06;;;;;;;8.27;1.50;;;;;;;;;;4868647;29;20049;-71
2022/07/05 15:03:37;;;;;;;6.22;1.50;;;;;;;;;;4832342;29;20050;-68
2022/07/05 15:06:07;;;;;;;5.90;1.25;;;;;;;;;;4781139;29;21172;-72
2022/07/05 15:08:38;;;;;;;5.55;1.75;;;;;;;;;;4822695;29;20138;-72
2022/07/05 15:11:08;;;;;;;4.70;1.40;;;;;;;;;;4777526;29;20069;-71
2022/07/05 15:13:38;;;;;;;7.40;1.95;;;;;;;;;;4764004;29;20507;-72
2022/07/05 15:16:09;;;;;;;2.95;1.08;;;;;;;;;;4822502;29;20396;-71
2022/07/05 15:18:40;;;;;;;3.33;1.63;;;;;;;;;;4840687;29;20065;-71
2022/07/05 15:21:11;;;;;;;6.60;1.60;;;;;;;;;;4843965;29;20077;-71
2022/07/05 15:23:41;;;;;;;7.70;1.65;;;;;;;;;;4859207;29;20045;-72
2022/07/05 15:26:11;;;;;;;4.57;1.27;;;;;;;;;;4858855;29;20427;-71
2022/07/05 15:28:41;;;;;;;4.60;1.30;;;;;;;;;;4859166;29;20057;-72
2022/07/05 15:31:12;;;;;;;5.65;1.23;;;;;;;;;;4859311;29;20773;-72
2022/07/05 15:33:42;;;;;;;4.50;1.50;;;;;;;;;;4858827;29;20045;-72